createdAt,value
2023-03-27T00:01:23.237Z,1.30
2023-03-27T00:03:50.994Z,1.20
2023-03-27T00:06:19.188Z,1.37
2023-03-27T00:08:48.192Z,1.83
2023-03-27T00:11:15.577Z,1.20
2023-03-27T00:13:50.815Z,0.93
2023-03-27T00:16:23.725Z,1.42
2023-03-27T00:18:50.313Z,1.08
2023-03-27T00:21:17.198Z,1.02
2023-03-27T00:23:43.803Z,1.23
2023-03-27T00:26:11.799Z,1.73
2023-03-27T00:28:38.367Z,1.20
2023-03-27T00:31:10.826Z,1.33
2023-03-27T00:33:37.613Z,1.80
2023-03-27T00:36:04.484Z,1.40
2023-03-27T00:38:31.542Z,1.60
2023-03-27T00:40:58.253Z,1.27
2023-03-27T00:43:28.754Z,1.08
2023-03-27T00:46:02.868Z,1.88
2023-03-27T00:48:32.712Z,1.92
2023-03-27T00:50:59.439Z,1.58
2023-03-27T00:53:28.944Z,1.40
2023-03-27T00:56:01.160Z,1.20
2023-03-27T00:58:32.175Z,1.30
2023-03-27T01:00:58.760Z,1.27
2023-03-27T01:03:29.912Z,1.17
2023-03-27T01:05:58.529Z,1.10
2023-03-27T01:08:27.218Z,1.90
2023-03-27T01:11:12.608Z,1.13
2023-03-27T01:13:44.328Z,1.02
2023-03-27T01:16:18.595Z,1.20
2023-03-27T01:19:05.141Z,1.40
2023-03-27T01:21:47.815Z,1.50
2023-03-27T01:24:38.025Z,1.70
2023-03-27T01:27:10.624Z,1.20
2023-03-27T01:29:58.859Z,1.13
2023-03-27T01:33:04.712Z,1.88
2023-03-27T01:35:56.906Z,1.60
2023-03-27T01:38:41.776Z,1.15
2023-03-27T01:41:13.257Z,1.02
2023-03-27T01:43:51.476Z,1.40
2023-03-27T01:46:23.122Z,1.77
2023-03-27T01:48:56.158Z,1.40
2023-03-27T01:51:39.490Z,1.48
2023-03-27T01:54:19.077Z,1.55
2023-03-27T01:57:17.572Z,1.23
2023-03-27T01:59:49.934Z,2.28
2023-03-27T02:02:25.356Z,1.17
2023-03-27T02:05:03.718Z,1.55
2023-03-27T02:07:38.412Z,1.33
2023-03-27T02:10:09.553Z,1.30
2023-03-27T02:12:43.264Z,1.27
2023-03-27T02:15:24.009Z,1.75
2023-03-27T02:17:57.043Z,1.30
2023-03-27T02:20:24.234Z,1.48
2023-03-27T02:22:50.685Z,1.15
2023-03-27T02:25:46.777Z,1.45
2023-03-27T02:28:35.047Z,1.70
2023-03-27T02:31:55.575Z,1.30
2023-03-27T02:34:38.211Z,1.30
2023-03-27T02:37:32.294Z,1.15
2023-03-27T02:40:14.133Z,1.40
2023-03-27T02:43:08.702Z,1.58
2023-03-27T02:45:51.136Z,1.17
2023-03-27T02:48:33.855Z,1.02
2023-03-27T02:51:12.986Z,1.10
2023-03-27T02:53:46.735Z,0.98
2023-03-27T02:56:16.252Z,1.40
2023-03-27T02:58:50.834Z,1.02
2023-03-27T03:01:22.426Z,2.05
2023-03-27T03:03:58.297Z,1.25
2023-03-27T03:06:30.749Z,0.98
2023-03-27T03:09:03.743Z,1.10
2023-03-27T03:11:30.812Z,1.45
2023-03-27T03:13:57.736Z,1.02
2023-03-27T03:16:24.333Z,1.40
2023-03-27T03:18:50.987Z,0.70
2023-03-27T03:21:17.667Z,0.90
2023-03-27T03:23:58.050Z,0.85
2023-03-27T03:26:25.036Z,0.90
2023-03-27T03:29:01.164Z,0.80
2023-03-27T03:31:42.763Z,1.15
2023-03-27T03:34:18.409Z,1.75
2023-03-27T03:36:48.990Z,1.40
2023-03-27T03:39:17.016Z,0.80
2023-03-27T03:41:43.812Z,0.82
2023-03-27T03:44:10.423Z,1.23
2023-03-27T03:46:36.943Z,1.10
2023-03-27T03:49:04.872Z,0.82
2023-03-27T03:51:32.072Z,1.10
2023-03-27T03:53:58.663Z,1.15
2023-03-27T03:56:26.165Z,0.82
2023-03-27T03:58:52.689Z,0.90
2023-03-27T04:01:20.569Z,0.80
2023-03-27T04:03:48.245Z,0.93
2023-03-27T04:06:17.576Z,0.90
2023-03-27T04:08:47.669Z,0.90
2023-03-27T04:11:14.240Z,0.90
2023-03-27T04:13:40.732Z,0.93
2023-03-27T04:16:08.073Z,0.50
2023-03-27T04:18:35.362Z,0.63
2023-03-27T04:21:02.190Z,0.60
2023-03-27T04:23:33.779Z,0.90
2023-03-27T04:26:02.048Z,0.60
2023-03-27T04:28:34.150Z,0.63
2023-03-27T04:31:08.079Z,0.70
2023-03-27T04:33:39.366Z,0.50
2023-03-27T04:36:08.117Z,0.45
2023-03-27T04:38:36.979Z,0.70
2023-03-27T04:43:30.718Z,0.77
2023-03-27T04:45:57.329Z,0.80
2023-03-27T04:48:23.795Z,0.43
2023-03-27T04:50:50.300Z,0.50
2023-03-27T04:53:20.358Z,0.57
2023-03-27T04:55:51.036Z,0.60
2023-03-27T04:58:18.237Z,0.50
2023-03-27T05:00:50.320Z,0.73
2023-03-27T05:03:20.500Z,1.00
2023-03-27T05:05:49.642Z,0.70
2023-03-27T05:08:17.177Z,0.80
2023-03-27T05:10:44.643Z,0.80
2023-03-27T05:13:11.666Z,0.68
2023-03-27T05:15:39.103Z,0.70
2023-03-27T05:18:07.155Z,0.70
2023-03-27T05:20:34.575Z,0.65
2023-03-27T05:23:01.212Z,0.77
2023-03-27T05:25:28.819Z,0.60
2023-03-27T05:27:55.436Z,0.90
2023-03-27T05:30:23.677Z,0.73
2023-03-27T05:32:52.105Z,0.80
2023-03-27T05:35:21.538Z,1.33
2023-03-27T05:37:49.889Z,1.08
2023-03-27T05:40:17.479Z,1.27
2023-03-27T05:42:48.101Z,1.10
2023-03-27T05:45:14.881Z,0.82
2023-03-27T05:47:50.663Z,0.80
2023-03-27T05:50:19.218Z,1.00
2023-03-27T05:52:46.338Z,1.20
2023-03-27T05:55:14.920Z,0.95
2023-03-27T05:57:42.390Z,1.13
2023-03-27T06:00:11.844Z,1.20
2023-03-27T06:02:39.639Z,0.98
2023-03-27T06:05:13.417Z,0.80
2023-03-27T06:07:41.744Z,1.60
2023-03-27T06:10:13.566Z,0.90
2023-03-27T06:12:41.662Z,1.17
2023-03-27T06:15:09.684Z,1.20
2023-03-27T06:17:38.209Z,1.85
2023-03-27T06:20:15.634Z,1.00
2023-03-27T06:22:45.951Z,1.20
2023-03-27T06:25:12.912Z,1.27
2023-03-27T06:27:41.831Z,1.70
2023-03-27T06:30:10.956Z,1.48
2023-03-27T06:32:37.587Z,1.65
2023-03-27T06:35:04.341Z,1.73
2023-03-27T06:37:36.730Z,1.20
2023-03-27T06:40:09.612Z,1.67
2023-03-27T06:42:37.131Z,2.58
2023-03-27T06:45:05.226Z,1.75
2023-03-27T06:47:36.352Z,1.63
2023-03-27T06:50:06.587Z,1.92
2023-03-27T06:52:33.066Z,2.00
2023-03-27T06:54:59.599Z,1.80
2023-03-27T06:57:26.314Z,1.85
2023-03-27T06:59:53.385Z,2.00
2023-03-27T07:02:19.988Z,1.83
2023-03-27T07:04:57.828Z,2.13
2023-03-27T07:07:30.937Z,1.42
2023-03-27T07:09:57.480Z,1.58
2023-03-27T07:12:23.983Z,1.50
2023-03-27T07:14:51.422Z,1.65
2023-03-27T07:17:18.136Z,1.95
2023-03-27T07:19:44.596Z,1.30
2023-03-27T07:22:11.549Z,1.35
2023-03-27T07:24:38.240Z,1.63
2023-03-27T07:27:04.688Z,1.75
2023-03-27T07:29:31.762Z,1.90
2023-03-27T07:32:00.651Z,1.77
2023-03-27T07:34:29.617Z,1.75
2023-03-27T07:36:59.187Z,1.55
2023-03-27T07:39:25.799Z,1.65
2023-03-27T07:41:52.631Z,1.52
2023-03-27T07:44:19.891Z,1.77
2023-03-27T07:46:46.760Z,1.55
2023-03-27T07:49:13.487Z,1.70
2023-03-27T07:51:40.165Z,1.30
2023-03-27T07:54:06.561Z,1.67
2023-03-27T07:56:33.999Z,1.80
2023-03-27T07:59:01.555Z,1.73
2023-03-27T08:01:28.108Z,1.50
2023-03-27T08:03:54.912Z,1.45
2023-03-27T08:06:21.526Z,2.88
2023-03-27T08:08:47.997Z,1.60
2023-03-27T08:11:27.181Z,1.48
2023-03-27T08:13:56.604Z,1.90
2023-03-27T08:16:27.646Z,1.58
2023-03-27T08:18:54.578Z,1.65
2023-03-27T08:21:21.518Z,1.27
2023-03-27T08:23:47.958Z,2.03
2023-03-27T08:26:14.438Z,1.27
2023-03-27T08:28:41.217Z,1.25
2023-03-27T08:31:13.750Z,2.20
2023-03-27T08:33:44.464Z,1.40
2023-03-27T08:36:14.197Z,1.63
2023-03-27T08:38:42.968Z,1.85
2023-03-27T08:43:45.462Z,1.52
2023-03-27T08:46:23.641Z,1.45
2023-03-27T08:48:57.289Z,1.65
2023-03-27T08:51:30.835Z,0.88
2023-03-27T08:54:16.994Z,1.13
2023-03-27T08:56:44.150Z,1.48
2023-03-27T08:59:17.416Z,0.80
2023-03-27T09:01:53.412Z,0.63
2023-03-27T09:05:00.761Z,0.50
2023-03-27T09:07:41.292Z,0.47
2023-03-27T09:10:15.242Z,0.60
2023-03-27T09:12:58.788Z,0.60
2023-03-27T09:15:32.170Z,0.73
2023-03-27T09:18:17.097Z,0.85
2023-03-27T09:20:50.796Z,1.20
2023-03-27T09:23:21.737Z,0.82
2023-03-27T09:25:55.938Z,0.70
2023-03-27T09:28:37.172Z,0.82
2023-03-27T09:31:22.418Z,0.50
2023-03-27T09:33:49.255Z,0.90
2023-03-27T09:36:15.965Z,0.68
2023-03-27T09:38:46.324Z,1.05
2023-03-27T09:41:17.328Z,0.60
2023-03-27T09:44:02.487Z,0.50
2023-03-27T09:46:29.659Z,0.75
2023-03-27T09:49:04.681Z,1.10
2023-03-27T09:51:39.661Z,1.05
2023-03-27T09:54:07.158Z,0.60
2023-03-27T09:56:42.686Z,0.63
2023-03-27T09:59:20.136Z,0.68
2023-03-27T10:01:48.993Z,0.88
2023-03-27T10:04:18.829Z,0.68
2023-03-27T10:07:10.553Z,0.80
2023-03-27T10:09:39.120Z,0.90
2023-03-27T10:12:06.200Z,1.45
2023-03-27T10:14:46.088Z,0.80
2023-03-27T10:17:29.653Z,1.10
2023-03-27T10:20:26.953Z,0.88
2023-03-27T10:23:01.747Z,0.70
2023-03-27T10:25:39.393Z,0.50
2023-03-27T10:28:20.580Z,0.40
2023-03-27T10:31:02.054Z,0.45
2023-03-27T10:33:31.359Z,1.30
2023-03-27T10:35:58.924Z,0.50
2023-03-27T10:38:27.642Z,0.80
2023-03-27T10:40:58.720Z,1.00
2023-03-27T10:43:37.839Z,0.98
2023-03-27T10:46:12.847Z,0.70
2023-03-27T10:48:50.529Z,0.73
2023-03-27T10:51:46.448Z,1.70
2023-03-27T10:54:41.609Z,1.00
2023-03-27T10:57:18.665Z,0.65
2023-03-27T11:00:03.270Z,0.73
2023-03-27T11:02:40.605Z,1.13
2023-03-27T11:05:19.115Z,0.75
2023-03-27T11:07:55.795Z,1.02
2023-03-27T11:10:26.724Z,0.70
2023-03-27T11:13:04.081Z,1.10
2023-03-27T11:15:39.583Z,0.60
2023-03-27T11:18:21.052Z,0.80
2023-03-27T11:20:52.240Z,1.17
2023-03-27T11:23:39.747Z,0.70
2023-03-27T11:26:10.301Z,0.65
2023-03-27T11:28:53.006Z,0.70
2023-03-27T11:31:34.405Z,0.70
2023-03-27T11:34:11.770Z,0.80
2023-03-27T11:36:52.868Z,1.10
2023-03-27T11:39:32.262Z,1.05
2023-03-27T11:42:02.401Z,1.08
2023-03-27T11:44:32.076Z,0.77
2023-03-27T11:47:27.675Z,1.00
2023-03-27T11:50:31.812Z,0.82
2023-03-27T11:53:39.951Z,0.93
2023-03-27T11:56:18.470Z,1.02
2023-03-27T12:01:23.976Z,1.35
2023-03-27T12:04:03.057Z,1.08
2023-03-27T12:07:03.935Z,1.00
2023-03-27T12:09:47.620Z,1.05
2023-03-27T12:12:56.977Z,1.10
2023-03-27T12:15:42.064Z,0.90
2023-03-27T12:18:20.628Z,1.20
2023-03-27T12:23:41.670Z,0.88
2023-03-27T12:26:44.079Z,1.20
2023-03-27T12:29:23.129Z,1.23
2023-03-27T12:32:15.425Z,0.98
2023-03-27T12:34:54.332Z,0.90
2023-03-27T12:37:31.038Z,1.38
2023-03-27T12:39:59.246Z,0.90
2023-03-27T12:42:43.914Z,0.70
2023-03-27T12:45:18.212Z,0.70
2023-03-27T12:48:04.939Z,0.60
2023-03-27T12:50:39.887Z,0.75
2023-03-27T12:53:06.548Z,1.13
2023-03-27T12:55:36.486Z,0.80
2023-03-27T12:58:05.231Z,1.13
2023-03-27T13:00:32.608Z,0.70
2023-03-27T13:03:42.108Z,0.90
2023-03-27T13:06:23.591Z,0.82
2023-03-27T13:09:13.521Z,1.13
2023-03-27T13:12:01.771Z,0.80
2023-03-27T13:14:43.436Z,0.80
2023-03-27T13:17:30.051Z,0.80
2023-03-27T13:20:10.274Z,1.00
2023-03-27T13:22:59.326Z,0.93
2023-03-27T13:25:38.172Z,1.27
2023-03-27T13:28:31.353Z,0.73
2023-03-27T13:30:59.787Z,0.88
2023-03-27T13:33:29.012Z,1.08
2023-03-27T13:35:58.466Z,0.90
2023-03-27T13:39:08.096Z,0.63
2023-03-27T13:41:44.378Z,0.95
2023-03-27T13:44:38.045Z,0.93
2023-03-27T13:47:28.466Z,0.98
2023-03-27T13:50:20.131Z,1.05
2023-03-27T13:53:22.376Z,0.57
2023-03-27T13:56:16.863Z,0.80
2023-03-27T13:59:04.688Z,0.73
2023-03-27T14:01:40.366Z,0.80
2023-03-27T14:04:28.403Z,0.70
2023-03-27T14:07:13.065Z,1.00
2023-03-27T14:09:57.872Z,0.73
2023-03-27T14:12:38.823Z,0.70
2023-03-27T14:15:24.186Z,1.20
2023-03-27T14:18:28.013Z,0.50
2023-03-27T14:21:02.241Z,0.60
2023-03-27T14:23:35.698Z,0.82
2023-03-27T14:26:12.069Z,0.90
2023-03-27T14:28:42.160Z,0.73
2023-03-27T14:31:11.221Z,0.65
2023-03-27T14:33:39.115Z,0.80
2023-03-27T14:36:05.971Z,1.48
2023-03-27T14:38:37.367Z,0.80
2023-03-27T14:41:07.183Z,0.68
2023-03-27T14:43:33.692Z,0.93
2023-03-27T14:46:04.631Z,0.85
2023-03-27T14:48:37.428Z,0.85
2023-03-27T14:51:21.171Z,0.80
2023-03-27T14:53:51.494Z,0.77
2023-03-27T14:56:45.623Z,0.98
2023-03-27T14:59:15.566Z,0.80
2023-03-27T15:01:42.228Z,1.15
2023-03-27T15:04:11.182Z,0.55
2023-03-27T15:06:38.686Z,0.95
2023-03-27T15:09:14.321Z,0.70
2023-03-27T15:11:44.256Z,0.80
2023-03-27T15:14:20.493Z,1.40
2023-03-27T15:17:14.997Z,0.70
2023-03-27T15:19:48.842Z,0.90
2023-03-27T15:22:27.429Z,1.20
2023-03-27T15:25:12.353Z,0.80
2023-03-27T15:27:43.132Z,1.08
2023-03-27T15:30:45.002Z,0.80
2023-03-27T15:33:20.223Z,1.00
2023-03-27T15:35:51.633Z,0.80
2023-03-27T15:38:25.636Z,0.70
2023-03-27T15:41:01.179Z,1.10
2023-03-27T15:43:28.417Z,0.93
2023-03-27T15:46:01.728Z,0.77
2023-03-27T15:48:35.719Z,1.17
2023-03-27T15:51:07.864Z,1.15
2023-03-27T15:53:39.905Z,0.98
2023-03-27T15:56:21.511Z,0.93
2023-03-27T15:58:58.463Z,1.30
2023-03-27T16:01:40.378Z,0.85
2023-03-27T16:04:12.934Z,0.95
2023-03-27T16:06:42.328Z,1.42
2023-03-27T16:09:27.263Z,1.05
2023-03-27T16:11:56.332Z,1.25
2023-03-27T16:14:41.691Z,1.08
2023-03-27T16:17:08.505Z,1.20
2023-03-27T16:19:43.428Z,1.13
2023-03-27T16:22:09.932Z,1.05
2023-03-27T16:24:36.432Z,0.70
2023-03-27T16:27:03.086Z,0.90
2023-03-27T16:29:29.572Z,0.80
2023-03-27T16:31:56.513Z,0.40
2023-03-27T16:34:23.787Z,0.55
2023-03-27T16:36:50.312Z,0.93
2023-03-27T16:39:17.158Z,0.63
2023-03-27T16:41:43.725Z,0.90
2023-03-27T16:44:10.143Z,1.02
2023-03-27T16:46:37.193Z,0.88
2023-03-27T16:49:03.920Z,1.63
2023-03-27T16:51:31.011Z,0.77
2023-03-27T16:53:57.490Z,1.10
2023-03-27T16:56:24.309Z,1.55
2023-03-27T16:58:50.870Z,1.33
2023-03-27T17:01:17.391Z,1.30
2023-03-27T17:03:43.986Z,1.70
2023-03-27T17:06:12.690Z,1.00
2023-03-27T17:08:39.255Z,1.13
2023-03-27T17:11:09.074Z,0.90
2023-03-27T17:13:36.640Z,1.27
2023-03-27T17:16:03.805Z,1.05
2023-03-27T17:18:30.323Z,1.50
2023-03-27T17:20:57.145Z,1.35
2023-03-27T17:23:23.718Z,1.00
2023-03-27T17:25:50.460Z,1.08
2023-03-27T17:28:17.345Z,0.90
2023-03-27T17:30:56.693Z,1.02
2023-03-27T17:33:30.424Z,1.30
2023-03-27T17:35:57.528Z,1.45
2023-03-27T17:38:24.583Z,1.08
2023-03-27T17:40:51.682Z,0.80
2023-03-27T17:43:18.264Z,0.90
2023-03-27T17:45:44.836Z,0.90
2023-03-27T17:48:11.554Z,1.00
2023-03-27T17:50:39.092Z,0.88
2023-03-27T17:53:05.568Z,0.77
2023-03-27T17:55:32.162Z,0.70
2023-03-27T17:58:08.840Z,0.82
2023-03-27T18:00:37.417Z,0.70
2023-03-27T18:03:04.838Z,0.80
2023-03-27T18:05:36.554Z,0.90
2023-03-27T18:08:03.645Z,1.17
2023-03-27T18:10:30.243Z,0.90
2023-03-27T18:12:57.213Z,1.10
2023-03-27T18:15:23.830Z,1.15
2023-03-27T18:17:50.524Z,0.80
2023-03-27T18:20:17.118Z,1.08
2023-03-27T18:22:43.899Z,0.82
2023-03-27T18:25:10.720Z,1.40
2023-03-27T18:27:40.109Z,1.00
2023-03-27T18:30:13.352Z,1.48
2023-03-27T18:32:42.569Z,1.27
2023-03-27T18:35:14.043Z,1.20
2023-03-27T18:37:41.970Z,1.15
2023-03-27T18:40:12.117Z,1.75
2023-03-27T18:42:40.445Z,1.75
2023-03-27T18:45:08.508Z,1.92
2023-03-27T18:47:36.502Z,2.67
2023-03-27T18:50:05.064Z,2.13
2023-03-27T18:52:31.935Z,1.73
2023-03-27T18:54:58.394Z,1.38
2023-03-27T18:57:25.123Z,1.50
2023-03-27T18:59:51.842Z,2.05
2023-03-27T19:02:18.422Z,2.28
2023-03-27T19:04:45.612Z,1.45
2023-03-27T19:07:12.084Z,1.40
2023-03-27T19:09:41.633Z,1.50
2023-03-27T19:12:09.204Z,1.85
2023-03-27T19:14:36.519Z,1.27
2023-03-27T19:17:03.544Z,1.58
2023-03-27T19:19:31.982Z,1.30
2023-03-27T19:21:58.548Z,1.35
2023-03-27T19:24:25.111Z,1.20
2023-03-27T19:26:52.702Z,2.03
2023-03-27T19:29:20.629Z,2.30
2023-03-27T19:31:47.085Z,2.30
2023-03-27T19:34:13.886Z,2.20
2023-03-27T19:36:40.441Z,2.15
2023-03-27T19:39:07.112Z,2.15
2023-03-27T19:41:33.635Z,2.40
2023-03-27T19:44:00.469Z,2.65
2023-03-27T19:46:28.444Z,2.10
2023-03-27T19:48:55.028Z,1.80
2023-03-27T19:51:21.496Z,1.85
2023-03-27T19:53:48.096Z,1.80
2023-03-27T19:56:14.793Z,2.25
2023-03-27T19:58:41.321Z,2.08
2023-03-27T20:01:07.844Z,1.90
2023-03-27T20:03:35.303Z,1.80
2023-03-27T20:06:07.861Z,1.60
2023-03-27T20:08:38.184Z,2.30
2023-03-27T20:11:06.804Z,1.77
2023-03-27T20:13:39.564Z,1.90
2023-03-27T20:16:15.010Z,1.75
2023-03-27T20:18:42.733Z,2.38
2023-03-27T20:21:10.075Z,2.60
2023-03-27T20:23:37.760Z,2.10
2023-03-27T20:26:04.613Z,1.90
2023-03-27T20:28:31.024Z,2.40
2023-03-27T20:31:03.036Z,3.03
2023-03-27T20:33:29.529Z,1.98
2023-03-27T20:35:56.004Z,2.67
2023-03-27T20:38:23.548Z,2.20
2023-03-27T20:40:54.247Z,2.53
2023-03-27T20:43:22.832Z,2.42
2023-03-27T20:45:55.042Z,3.03
2023-03-27T20:48:22.126Z,3.00
2023-03-27T20:50:55.403Z,4.18
2023-03-27T20:53:30.475Z,4.47
2023-03-27T20:56:00.727Z,3.00
2023-03-27T20:58:28.181Z,3.00
2023-03-27T21:00:56.052Z,2.10
2023-03-27T21:03:23.092Z,2.05
2023-03-27T21:05:49.720Z,1.83
2023-03-27T21:08:16.267Z,2.25
2023-03-27T21:10:42.765Z,2.40
2023-03-27T21:13:09.232Z,1.75
2023-03-27T21:15:36.140Z,2.13
2023-03-27T21:18:02.780Z,2.20
2023-03-27T21:20:29.311Z,2.47
2023-03-27T21:22:56.089Z,2.20
2023-03-27T21:25:22.693Z,1.88
2023-03-27T21:27:49.345Z,2.45
2023-03-27T21:30:16.580Z,2.08
2023-03-27T21:32:43.390Z,1.60
2023-03-27T21:35:10.028Z,1.77
2023-03-27T21:37:36.798Z,2.30
2023-03-27T21:40:04.694Z,1.65
2023-03-27T21:42:31.437Z,2.67
2023-03-27T21:44:57.916Z,2.17
2023-03-27T21:47:34.417Z,1.77
2023-03-27T21:50:08.243Z,1.80
2023-03-27T21:52:34.814Z,1.52
2023-03-27T21:55:03.213Z,1.40
2023-03-27T21:57:30.292Z,1.65
2023-03-27T21:59:57.309Z,1.60
2023-03-27T22:02:23.933Z,2.10
2023-03-27T22:04:50.800Z,2.00
2023-03-27T22:07:17.442Z,2.05
2023-03-27T22:09:44.675Z,1.52
2023-03-27T22:12:11.151Z,1.52
2023-03-27T22:14:37.564Z,1.90
2023-03-27T22:17:04.268Z,1.55
2023-03-27T22:19:31.092Z,2.00
2023-03-27T22:21:57.680Z,1.77
2023-03-27T22:24:25.394Z,1.92
2023-03-27T22:26:51.857Z,2.05
2023-03-27T22:29:18.356Z,1.80
2023-03-27T22:31:44.887Z,1.83
2023-03-27T22:34:11.667Z,1.40
2023-03-27T22:36:38.479Z,2.15
2023-03-27T22:39:05.517Z,1.77
2023-03-27T22:41:32.004Z,1.50
2023-03-27T22:44:01.121Z,1.25
2023-03-27T22:46:27.864Z,1.60
2023-03-27T22:48:56.093Z,1.40
2023-03-27T22:51:23.493Z,1.48
2023-03-27T22:53:50.179Z,1.92
2023-03-27T22:56:17.879Z,1.48
2023-03-27T22:58:45.798Z,1.90
2023-03-27T23:01:12.640Z,1.90
2023-03-27T23:03:39.212Z,2.13
2023-03-27T23:06:06.097Z,1.90
2023-03-27T23:08:33.147Z,1.95
2023-03-27T23:11:04.861Z,1.55
2023-03-27T23:13:34.127Z,2.97
2023-03-27T23:16:01.671Z,2.22
2023-03-27T23:18:28.250Z,2.22
2023-03-27T23:20:57.082Z,1.77
2023-03-27T23:25:50.886Z,2.20
2023-03-27T23:28:17.423Z,2.63
2023-03-27T23:30:52.041Z,2.22
2023-03-27T23:33:18.624Z,2.53
2023-03-27T23:35:45.208Z,2.03
2023-03-27T23:38:11.658Z,2.35
2023-03-27T23:40:38.828Z,2.30
2023-03-27T23:43:05.385Z,2.00
2023-03-27T23:45:31.892Z,2.13
2023-03-27T23:47:58.478Z,2.50
2023-03-27T23:50:25.030Z,2.30
2023-03-27T23:52:51.524Z,2.33
2023-03-27T23:55:17.984Z,2.53
2023-03-27T23:57:44.451Z,2.42
